sensor_id;sensor_type;location;lat;lon;timestamp;temperature;humidity
336;DHT22;156;48.738;9.228;2023-04-24T00:00:14;10.30;9.80
336;DHT22;156;48.738;9.228;2023-04-24T00:02:44;10.30;13.50
336;DHT22;156;48.738;9.228;2023-04-24T00:05:14;10.30;12.90
336;DHT22;156;48.738;9.228;2023-04-24T00:07:43;10.30;13.10
336;DHT22;156;48.738;9.228;2023-04-24T00:10:11;10.30;12.50
336;DHT22;156;48.738;9.228;2023-04-24T00:12:41;10.30;12.40
336;DHT22;156;48.738;9.228;2023-04-24T00:15:09;10.40;14.00
336;DHT22;156;48.738;9.228;2023-04-24T00:17:37;10.30;15.70
336;DHT22;156;48.738;9.228;2023-04-24T00:20:07;10.20;16.70
336;DHT22;156;48.738;9.228;2023-04-24T00:22:36;10.20;17.60
336;DHT22;156;48.738;9.228;2023-04-24T00:25:06;10.20;20.80
336;DHT22;156;48.738;9.228;2023-04-24T00:27:34;10.20;19.70
336;DHT22;156;48.738;9.228;2023-04-24T00:30:03;10.10;20.00
336;DHT22;156;48.738;9.228;2023-04-24T00:32:31;10.20;18.80
336;DHT22;156;48.738;9.228;2023-04-24T00:34:58;10.10;19.60
336;DHT22;156;48.738;9.228;2023-04-24T00:37:27;10.20;21.30
336;DHT22;156;48.738;9.228;2023-04-24T00:39:54;10.20;15.00
336;DHT22;156;48.738;9.228;2023-04-24T00:42:22;10.20;14.50
336;DHT22;156;48.738;9.228;2023-04-24T00:44:49;10.20;13.60
336;DHT22;156;48.738;9.228;2023-04-24T00:47:17;10.30;11.90
336;DHT22;156;48.738;9.228;2023-04-24T00:49:47;10.20;9.70
336;DHT22;156;48.738;9.228;2023-04-24T00:52:14;10.20;8.40
336;DHT22;156;48.738;9.228;2023-04-24T00:54:44;10.30;5.60
336;DHT22;156;48.738;9.228;2023-04-24T00:57:13;10.40;1.40
336;DHT22;156;48.738;9.228;2023-04-24T00:59:40;10.40;1.00
336;DHT22;156;48.738;9.228;2023-04-24T01:02:10;10.40;1.40
336;DHT22;156;48.738;9.228;2023-04-24T01:04:38;10.40;1.00
336;DHT22;156;48.738;9.228;2023-04-24T01:07:06;10.40;1.00
336;DHT22;156;48.738;9.228;2023-04-24T01:09:36;10.50;1.00
336;DHT22;156;48.738;9.228;2023-04-24T01:12:06;10.50;1.00
336;DHT22;156;48.738;9.228;2023-04-24T01:14:34;10.50;1.00
336;DHT22;156;48.738;9.228;2023-04-24T01:17:01;10.50;1.00
336;DHT22;156;48.738;9.228;2023-04-24T01:19:28;10.50;1.00
336;DHT22;156;48.738;9.228;2023-04-24T01:21:58;10.50;1.00
336;DHT22;156;48.738;9.228;2023-04-24T01:24:26;10.60;1.00
336;DHT22;156;48.738;9.228;2023-04-24T01:26:53;10.60;1.00
336;DHT22;156;48.738;9.228;2023-04-24T01:29:20;10.60;1.00
336;DHT22;156;48.738;9.228;2023-04-24T01:31:47;10.70;1.00
336;DHT22;156;48.738;9.228;2023-04-24T01:34:14;10.70;1.00
336;DHT22;156;48.738;9.228;2023-04-24T01:36:43;10.70;1.00
336;DHT22;156;48.738;9.228;2023-04-24T01:39:12;10.60;1.00
336;DHT22;156;48.738;9.228;2023-04-24T01:41:40;10.60;1.00
336;DHT22;156;48.738;9.228;2023-04-24T01:44:07;10.50;1.00
336;DHT22;156;48.738;9.228;2023-04-24T01:46:36;10.50;1.00
336;DHT22;156;48.738;9.228;2023-04-24T01:49:04;10.50;1.00
336;DHT22;156;48.738;9.228;2023-04-24T01:51:31;10.50;1.00
336;DHT22;156;48.738;9.228;2023-04-24T01:53:58;10.50;1.00
336;DHT22;156;48.738;9.228;2023-04-24T01:56:25;10.40;1.60
336;DHT22;156;48.738;9.228;2023-04-24T01:58:57;10.50;1.30
336;DHT22;156;48.738;9.228;2023-04-24T02:01:24;10.50;1.00
336;DHT22;156;48.738;9.228;2023-04-24T02:03:53;10.50;1.30
336;DHT22;156;48.738;9.228;2023-04-24T02:06:20;10.50;1.00
336;DHT22;156;48.738;9.228;2023-04-24T02:08:47;10.60;1.00
336;DHT22;156;48.738;9.228;2023-04-24T02:11:14;10.60;1.00
336;DHT22;156;48.738;9.228;2023-04-24T02:13:41;10.50;1.00
336;DHT22;156;48.738;9.228;2023-04-24T02:16:10;10.50;1.00
336;DHT22;156;48.738;9.228;2023-04-24T02:18:37;10.50;1.00
336;DHT22;156;48.738;9.228;2023-04-24T02:21:03;10.40;1.30
336;DHT22;156;48.738;9.228;2023-04-24T02:23:30;10.40;1.50
336;DHT22;156;48.738;9.228;2023-04-24T02:25:57;10.30;1.80
336;DHT22;156;48.738;9.228;2023-04-24T02:28:24;10.30;5.10
336;DHT22;156;48.738;9.228;2023-04-24T02:30:52;10.30;5.40
336;DHT22;156;48.738;9.228;2023-04-24T02:33:20;10.30;7.50
336;DHT22;156;48.738;9.228;2023-04-24T02:35:47;10.30;7.30
336;DHT22;156;48.738;9.228;2023-04-24T02:38:14;10.20;8.60
336;DHT22;156;48.738;9.228;2023-04-24T02:40:41;10.10;9.60
336;DHT22;156;48.738;9.228;2023-04-24T02:43:08;10.10;13.00
336;DHT22;156;48.738;9.228;2023-04-24T02:45:37;10.20;13.90
336;DHT22;156;48.738;9.228;2023-04-24T02:48:04;10.20;11.90
336;DHT22;156;48.738;9.228;2023-04-24T02:50:34;10.20;13.70
336;DHT22;156;48.738;9.228;2023-04-24T02:53:02;10.20;13.80
336;DHT22;156;48.738;9.228;2023-04-24T02:55:29;10.20;14.30
336;DHT22;156;48.738;9.228;2023-04-24T02:57:56;10.20;13.90
336;DHT22;156;48.738;9.228;2023-04-24T03:00:23;10.20;13.90
336;DHT22;156;48.738;9.228;2023-04-24T03:02:50;10.30;13.80
336;DHT22;156;48.738;9.228;2023-04-24T03:05:18;10.20;13.80
336;DHT22;156;48.738;9.228;2023-04-24T03:07:47;10.20;17.80
336;DHT22;156;48.738;9.228;2023-04-24T03:10:14;10.20;21.90
336;DHT22;156;48.738;9.228;2023-04-24T03:12:41;10.20;20.40
336;DHT22;156;48.738;9.228;2023-04-24T03:15:09;10.20;22.10
336;DHT22;156;48.738;9.228;2023-04-24T03:17:36;10.30;21.60
336;DHT22;156;48.738;9.228;2023-04-24T03:20:03;10.30;21.90
336;DHT22;156;48.738;9.228;2023-04-24T03:22:31;10.20;25.50
336;DHT22;156;48.738;9.228;2023-04-24T03:25:00;10.00;36.80
336;DHT22;156;48.738;9.228;2023-04-24T03:27:27;9.90;45.00
336;DHT22;156;48.738;9.228;2023-04-24T03:29:56;9.90;50.10
336;DHT22;156;48.738;9.228;2023-04-24T03:32:23;9.80;57.00
336;DHT22;156;48.738;9.228;2023-04-24T03:34:50;9.70;60.00
336;DHT22;156;48.738;9.228;2023-04-24T03:37:17;9.70;61.70
336;DHT22;156;48.738;9.228;2023-04-24T03:39:44;9.70;64.30
336;DHT22;156;48.738;9.228;2023-04-24T03:42:12;9.70;63.50
336;DHT22;156;48.738;9.228;2023-04-24T03:44:39;9.80;65.00
336;DHT22;156;48.738;9.228;2023-04-24T03:47:06;9.70;65.50
336;DHT22;156;48.738;9.228;2023-04-24T03:49:33;9.80;64.70
336;DHT22;156;48.738;9.228;2023-04-24T03:52:00;9.70;67.00
336;DHT22;156;48.738;9.228;2023-04-24T03:54:26;9.70;69.60
336;DHT22;156;48.738;9.228;2023-04-24T03:56:53;9.70;69.20
336;DHT22;156;48.738;9.228;2023-04-24T03:59:22;9.70;70.10
336;DHT22;156;48.738;9.228;2023-04-24T04:01:49;9.70;70.00
336;DHT22;156;48.738;9.228;2023-04-24T04:04:16;9.70;67.60
336;DHT22;156;48.738;9.228;2023-04-24T04:06:43;9.70;68.30
336;DHT22;156;48.738;9.228;2023-04-24T04:09:11;9.60;70.00
336;DHT22;156;48.738;9.228;2023-04-24T04:11:39;9.60;73.10
336;DHT22;156;48.738;9.228;2023-04-24T04:14:05;9.60;76.30
336;DHT22;156;48.738;9.228;2023-04-24T04:16:34;9.60;73.50
336;DHT22;156;48.738;9.228;2023-04-24T04:19:01;9.70;72.90
336;DHT22;156;48.738;9.228;2023-04-24T04:21:28;9.70;72.20
336;DHT22;156;48.738;9.228;2023-04-24T04:23:56;9.70;72.00
336;DHT22;156;48.738;9.228;2023-04-24T04:26:23;9.70;69.10
336;DHT22;156;48.738;9.228;2023-04-24T04:28:52;9.70;67.30
336;DHT22;156;48.738;9.228;2023-04-24T04:31:20;9.70;62.10
336;DHT22;156;48.738;9.228;2023-04-24T04:33:49;9.70;60.40
336;DHT22;156;48.738;9.228;2023-04-24T04:36:15;9.20;66.20
336;DHT22;156;48.738;9.228;2023-04-24T04:38:43;9.60;90.00
336;DHT22;156;48.738;9.228;2023-04-24T04:41:10;9.40;99.90
336;DHT22;156;48.738;9.228;2023-04-24T04:43:37;9.10;96.20
336;DHT22;156;48.738;9.228;2023-04-24T04:46:06;9.00;96.60
336;DHT22;156;48.738;9.228;2023-04-24T04:48:33;8.80;80.50
336;DHT22;156;48.738;9.228;2023-04-24T04:51:02;8.60;84.80
336;DHT22;156;48.738;9.228;2023-04-24T04:53:29;8.50;90.90
336;DHT22;156;48.738;9.228;2023-04-24T04:55:56;8.40;93.50
336;DHT22;156;48.738;9.228;2023-04-24T04:58:23;8.30;94.90
336;DHT22;156;48.738;9.228;2023-04-24T05:00:50;8.30;78.30
336;DHT22;156;48.738;9.228;2023-04-24T05:03:17;8.20;82.60
336;DHT22;156;48.738;9.228;2023-04-24T05:05:44;8.20;83.60
336;DHT22;156;48.738;9.228;2023-04-24T05:08:13;8.20;78.90
336;DHT22;156;48.738;9.228;2023-04-24T05:10:40;8.20;85.80
336;DHT22;156;48.738;9.228;2023-04-24T05:13:07;8.20;85.10
336;DHT22;156;48.738;9.228;2023-04-24T05:15:34;8.20;83.00
336;DHT22;156;48.738;9.228;2023-04-24T05:18:00;8.20;90.20
336;DHT22;156;48.738;9.228;2023-04-24T05:20:27;8.10;86.10
336;DHT22;156;48.738;9.228;2023-04-24T05:22:54;8.20;91.20
336;DHT22;156;48.738;9.228;2023-04-24T05:25:23;8.20;86.40
336;DHT22;156;48.738;9.228;2023-04-24T05:27:49;8.20;87.40
336;DHT22;156;48.738;9.228;2023-04-24T05:30:16;8.30;83.90
336;DHT22;156;48.738;9.228;2023-04-24T05:32:43;8.30;78.50
336;DHT22;156;48.738;9.228;2023-04-24T05:35:10;8.30;76.00
336;DHT22;156;48.738;9.228;2023-04-24T05:37:37;8.40;69.50
336;DHT22;156;48.738;9.228;2023-04-24T05:40:05;8.40;74.00
336;DHT22;156;48.738;9.228;2023-04-24T05:42:33;8.40;79.40
336;DHT22;156;48.738;9.228;2023-04-24T05:45:00;8.40;72.20
336;DHT22;156;48.738;9.228;2023-04-24T05:47:27;8.50;72.00
336;DHT22;156;48.738;9.228;2023-04-24T05:49:54;8.60;78.70
336;DHT22;156;48.738;9.228;2023-04-24T05:52:21;8.60;73.80
336;DHT22;156;48.738;9.228;2023-04-24T05:54:48;8.70;60.20
336;DHT22;156;48.738;9.228;2023-04-24T05:57:15;8.70;68.80
336;DHT22;156;48.738;9.228;2023-04-24T05:59:43;8.70;71.10
336;DHT22;156;48.738;9.228;2023-04-24T06:02:10;8.80;57.50
336;DHT22;156;48.738;9.228;2023-04-24T06:04:37;8.80;58.80
336;DHT22;156;48.738;9.228;2023-04-24T06:07:03;8.90;59.10
336;DHT22;156;48.738;9.228;2023-04-24T06:09:30;8.90;58.90
336;DHT22;156;48.738;9.228;2023-04-24T06:11:57;8.90;45.60
336;DHT22;156;48.738;9.228;2023-04-24T06:14:25;8.90;48.90
336;DHT22;156;48.738;9.228;2023-04-24T06:16:53;8.90;44.50
336;DHT22;156;48.738;9.228;2023-04-24T06:19:20;8.80;43.40
336;DHT22;156;48.738;9.228;2023-04-24T06:21:47;8.80;40.00
336;DHT22;156;48.738;9.228;2023-04-24T06:24:15;8.80;49.30
336;DHT22;156;48.738;9.228;2023-04-24T06:26:42;8.90;44.80
336;DHT22;156;48.738;9.228;2023-04-24T06:29:09;9.10;44.60
336;DHT22;156;48.738;9.228;2023-04-24T06:31:36;9.20;44.60
336;DHT22;156;48.738;9.228;2023-04-24T06:34:04;9.20;40.10
336;DHT22;156;48.738;9.228;2023-04-24T06:36:32;9.40;22.30
336;DHT22;156;48.738;9.228;2023-04-24T06:39:00;9.40;17.80
336;DHT22;156;48.738;9.228;2023-04-24T06:41:27;9.40;9.70
336;DHT22;156;48.738;9.228;2023-04-24T06:43:54;9.50;14.10
336;DHT22;156;48.738;9.228;2023-04-24T06:46:21;9.60;1.00
336;DHT22;156;48.738;9.228;2023-04-24T06:48:51;9.70;1.70
336;DHT22;156;48.738;9.228;2023-04-24T06:51:22;9.90;1.70
336;DHT22;156;48.738;9.228;2023-04-24T06:53:49;9.90;1.00
336;DHT22;156;48.738;9.228;2023-04-24T06:56:16;10.00;1.00
336;DHT22;156;48.738;9.228;2023-04-24T06:58:43;10.10;1.00
336;DHT22;156;48.738;9.228;2023-04-24T07:01:10;10.20;1.00
336;DHT22;156;48.738;9.228;2023-04-24T07:03:37;10.30;1.00
336;DHT22;156;48.738;9.228;2023-04-24T07:06:06;10.20;1.00
336;DHT22;156;48.738;9.228;2023-04-24T07:08:35;10.30;1.00
336;DHT22;156;48.738;9.228;2023-04-24T07:11:03;10.40;1.00
336;DHT22;156;48.738;9.228;2023-04-24T07:13:30;10.70;1.00
336;DHT22;156;48.738;9.228;2023-04-24T07:15:57;10.80;1.00
336;DHT22;156;48.738;9.228;2023-04-24T07:18:24;10.70;1.00
336;DHT22;156;48.738;9.228;2023-04-24T07:20:51;10.50;1.00
336;DHT22;156;48.738;9.228;2023-04-24T07:23:19;10.50;1.00
336;DHT22;156;48.738;9.228;2023-04-24T07:25:48;10.50;1.00
336;DHT22;156;48.738;9.228;2023-04-24T07:28:15;10.30;1.00
336;DHT22;156;48.738;9.228;2023-04-24T07:30:43;10.30;1.00
336;DHT22;156;48.738;9.228;2023-04-24T07:33:10;10.10;1.00
336;DHT22;156;48.738;9.228;2023-04-24T07:35:38;10.00;1.00
336;DHT22;156;48.738;9.228;2023-04-24T07:38:05;9.90;1.00
336;DHT22;156;48.738;9.228;2023-04-24T07:40:32;10.00;1.00
336;DHT22;156;48.738;9.228;2023-04-24T07:43:01;10.10;1.00
336;DHT22;156;48.738;9.228;2023-04-24T07:45:27;10.00;1.00
336;DHT22;156;48.738;9.228;2023-04-24T07:47:54;10.10;1.00
336;DHT22;156;48.738;9.228;2023-04-24T07:50:21;10.30;1.00
336;DHT22;156;48.738;9.228;2023-04-24T07:52:48;10.30;1.00
336;DHT22;156;48.738;9.228;2023-04-24T07:55:15;10.50;1.00
336;DHT22;156;48.738;9.228;2023-04-24T07:57:43;10.80;1.00
336;DHT22;156;48.738;9.228;2023-04-24T08:00:13;10.80;1.00
336;DHT22;156;48.738;9.228;2023-04-24T08:02:40;10.70;1.00
336;DHT22;156;48.738;9.228;2023-04-24T08:05:07;10.60;1.00
336;DHT22;156;48.738;9.228;2023-04-24T08:07:34;10.60;1.00
336;DHT22;156;48.738;9.228;2023-04-24T08:10:02;10.40;1.00
336;DHT22;156;48.738;9.228;2023-04-24T08:12:29;10.20;1.00
336;DHT22;156;48.738;9.228;2023-04-24T08:14:56;10.10;1.00
336;DHT22;156;48.738;9.228;2023-04-24T08:17:24;10.20;1.00
336;DHT22;156;48.738;9.228;2023-04-24T08:19:51;10.00;1.00
336;DHT22;156;48.738;9.228;2023-04-24T08:22:24;10.00;1.00
336;DHT22;156;48.738;9.228;2023-04-24T08:24:52;10.00;1.00
336;DHT22;156;48.738;9.228;2023-04-24T08:27:18;10.20;1.00
336;DHT22;156;48.738;9.228;2023-04-24T08:29:46;10.00;1.00
336;DHT22;156;48.738;9.228;2023-04-24T08:32:13;10.20;1.00
336;DHT22;156;48.738;9.228;2023-04-24T08:34:41;10.20;1.00
336;DHT22;156;48.738;9.228;2023-04-24T08:37:08;10.10;1.00
336;DHT22;156;48.738;9.228;2023-04-24T08:39:35;10.10;1.00
336;DHT22;156;48.738;9.228;2023-04-24T08:42:04;10.20;1.00
336;DHT22;156;48.738;9.228;2023-04-24T08:44:33;10.30;1.00
336;DHT22;156;48.738;9.228;2023-04-24T08:47:02;10.50;1.00
336;DHT22;156;48.738;9.228;2023-04-24T08:49:29;10.50;1.00
336;DHT22;156;48.738;9.228;2023-04-24T08:51:57;10.70;1.00
336;DHT22;156;48.738;9.228;2023-04-24T08:54:25;10.90;1.00
336;DHT22;156;48.738;9.228;2023-04-24T08:56:53;10.70;1.00
336;DHT22;156;48.738;9.228;2023-04-24T08:59:21;10.60;1.00
336;DHT22;156;48.738;9.228;2023-04-24T09:01:49;10.70;1.00
336;DHT22;156;48.738;9.228;2023-04-24T09:04:18;10.60;1.00
336;DHT22;156;48.738;9.228;2023-04-24T09:06:48;10.60;1.00
336;DHT22;156;48.738;9.228;2023-04-24T09:09:17;10.80;1.00
336;DHT22;156;48.738;9.228;2023-04-24T09:11:44;10.80;1.00
336;DHT22;156;48.738;9.228;2023-04-24T09:14:11;11.00;1.00
336;DHT22;156;48.738;9.228;2023-04-24T09:16:38;11.10;1.00
336;DHT22;156;48.738;9.228;2023-04-24T09:19:05;11.00;1.00
336;DHT22;156;48.738;9.228;2023-04-24T09:21:33;11.20;1.00
336;DHT22;156;48.738;9.228;2023-04-24T09:24:04;10.90;1.00
336;DHT22;156;48.738;9.228;2023-04-24T09:26:36;10.80;1.00
336;DHT22;156;48.738;9.228;2023-04-24T09:29:03;10.70;1.00
336;DHT22;156;48.738;9.228;2023-04-24T09:31:30;10.60;1.00
336;DHT22;156;48.738;9.228;2023-04-24T09:33:59;10.40;1.00
336;DHT22;156;48.738;9.228;2023-04-24T09:36:28;10.40;1.00
336;DHT22;156;48.738;9.228;2023-04-24T09:38:58;10.30;1.00
336;DHT22;156;48.738;9.228;2023-04-24T09:41:26;10.40;1.00
336;DHT22;156;48.738;9.228;2023-04-24T09:43:57;10.50;1.00
336;DHT22;156;48.738;9.228;2023-04-24T09:46:31;10.60;1.00
336;DHT22;156;48.738;9.228;2023-04-24T09:49:07;10.90;1.00
336;DHT22;156;48.738;9.228;2023-04-24T09:51:36;11.10;1.00
336;DHT22;156;48.738;9.228;2023-04-24T09:54:04;11.30;1.00
336;DHT22;156;48.738;9.228;2023-04-24T09:56:33;11.30;1.00
336;DHT22;156;48.738;9.228;2023-04-24T09:59:11;11.40;1.00
336;DHT22;156;48.738;9.228;2023-04-24T10:01:38;11.20;1.00
336;DHT22;156;48.738;9.228;2023-04-24T10:04:15;11.10;1.00
336;DHT22;156;48.738;9.228;2023-04-24T10:06:43;10.90;1.00
336;DHT22;156;48.738;9.228;2023-04-24T10:09:11;10.70;1.00
336;DHT22;156;48.738;9.228;2023-04-24T10:11:41;10.80;1.00
336;DHT22;156;48.738;9.228;2023-04-24T10:14:12;10.60;1.00
336;DHT22;156;48.738;9.228;2023-04-24T10:16:39;10.60;1.00
336;DHT22;156;48.738;9.228;2023-04-24T10:19:07;10.60;1.00
336;DHT22;156;48.738;9.228;2023-04-24T10:21:34;10.50;1.00
336;DHT22;156;48.738;9.228;2023-04-24T10:24:03;10.70;1.00
336;DHT22;156;48.738;9.228;2023-04-24T10:26:33;10.80;1.00
336;DHT22;156;48.738;9.228;2023-04-24T10:29:01;11.00;1.00
336;DHT22;156;48.738;9.228;2023-04-24T10:31:32;11.20;1.00
336;DHT22;156;48.738;9.228;2023-04-24T10:34:00;11.20;1.00
336;DHT22;156;48.738;9.228;2023-04-24T10:36:29;11.40;1.00
336;DHT22;156;48.738;9.228;2023-04-24T10:39:00;11.30;1.00
336;DHT22;156;48.738;9.228;2023-04-24T10:41:27;11.50;1.00
336;DHT22;156;48.738;9.228;2023-04-24T10:44:15;11.60;1.00
336;DHT22;156;48.738;9.228;2023-04-24T10:46:45;11.50;1.00
336;DHT22;156;48.738;9.228;2023-04-24T10:49:13;11.50;1.00
336;DHT22;156;48.738;9.228;2023-04-24T10:51:47;11.30;1.00
336;DHT22;156;48.738;9.228;2023-04-24T10:54:25;11.30;1.00
336;DHT22;156;48.738;9.228;2023-04-24T10:56:52;11.20;1.00
336;DHT22;156;48.738;9.228;2023-04-24T10:59:35;11.10;1.00
336;DHT22;156;48.738;9.228;2023-04-24T11:02:07;11.20;1.00
336;DHT22;156;48.738;9.228;2023-04-24T11:04:34;11.20;1.00
336;DHT22;156;48.738;9.228;2023-04-24T11:07:03;10.90;1.00
336;DHT22;156;48.738;9.228;2023-04-24T11:09:31;10.90;1.00
336;DHT22;156;48.738;9.228;2023-04-24T11:12:05;11.00;1.00
336;DHT22;156;48.738;9.228;2023-04-24T11:15:00;10.80;1.00
336;DHT22;156;48.738;9.228;2023-04-24T11:17:31;10.80;1.00
336;DHT22;156;48.738;9.228;2023-04-24T11:20:02;10.60;1.00
336;DHT22;156;48.738;9.228;2023-04-24T11:22:33;10.50;1.00
336;DHT22;156;48.738;9.228;2023-04-24T11:25:02;10.50;1.00
336;DHT22;156;48.738;9.228;2023-04-24T11:27:30;10.60;1.00
336;DHT22;156;48.738;9.228;2023-04-24T11:30:02;10.40;1.00
336;DHT22;156;48.738;9.228;2023-04-24T11:32:35;10.40;1.00
336;DHT22;156;48.738;9.228;2023-04-24T11:35:04;10.50;1.00
336;DHT22;156;48.738;9.228;2023-04-24T11:37:35;10.60;1.00
336;DHT22;156;48.738;9.228;2023-04-24T11:40:04;10.80;1.00
336;DHT22;156;48.738;9.228;2023-04-24T11:42:34;10.70;1.00
336;DHT22;156;48.738;9.228;2023-04-24T11:45:01;10.90;1.00
336;DHT22;156;48.738;9.228;2023-04-24T11:47:31;11.00;1.00
336;DHT22;156;48.738;9.228;2023-04-24T11:49:59;11.00;1.00
336;DHT22;156;48.738;9.228;2023-04-24T11:52:29;11.00;1.00
336;DHT22;156;48.738;9.228;2023-04-24T11:54:56;10.80;1.00
336;DHT22;156;48.738;9.228;2023-04-24T11:57:25;10.40;1.00
336;DHT22;156;48.738;9.228;2023-04-24T11:59:53;10.10;1.00
336;DHT22;156;48.738;9.228;2023-04-24T12:02:22;10.10;1.00
336;DHT22;156;48.738;9.228;2023-04-24T12:04:51;10.30;1.00
336;DHT22;156;48.738;9.228;2023-04-24T12:07:21;10.50;1.00
336;DHT22;156;48.738;9.228;2023-04-24T12:09:49;10.50;1.00
336;DHT22;156;48.738;9.228;2023-04-24T12:12:17;10.80;1.00
336;DHT22;156;48.738;9.228;2023-04-24T12:14:48;10.70;1.00
336;DHT22;156;48.738;9.228;2023-04-24T12:17:16;11.00;1.00
336;DHT22;156;48.738;9.228;2023-04-24T12:19:46;11.40;1.00
336;DHT22;156;48.738;9.228;2023-04-24T12:22:15;11.50;1.00
336;DHT22;156;48.738;9.228;2023-04-24T12:25:02;11.40;1.00
336;DHT22;156;48.738;9.228;2023-04-24T12:27:30;11.10;1.00
336;DHT22;156;48.738;9.228;2023-04-24T12:29:59;10.80;1.00
336;DHT22;156;48.738;9.228;2023-04-24T12:32:27;10.70;1.00
336;DHT22;156;48.738;9.228;2023-04-24T12:34:55;10.60;1.00
336;DHT22;156;48.738;9.228;2023-04-24T12:37:24;10.50;1.00
336;DHT22;156;48.738;9.228;2023-04-24T12:40:03;10.60;1.00
336;DHT22;156;48.738;9.228;2023-04-24T12:42:30;10.70;1.00
336;DHT22;156;48.738;9.228;2023-04-24T12:44:58;10.70;1.00
336;DHT22;156;48.738;9.228;2023-04-24T12:47:26;11.00;1.00
336;DHT22;156;48.738;9.228;2023-04-24T12:49:54;11.30;1.00
336;DHT22;156;48.738;9.228;2023-04-24T12:52:21;11.10;1.00
336;DHT22;156;48.738;9.228;2023-04-24T12:54:51;10.90;1.00
336;DHT22;156;48.738;9.228;2023-04-24T12:57:19;11.00;1.00
336;DHT22;156;48.738;9.228;2023-04-24T12:59:46;10.90;1.00
336;DHT22;156;48.738;9.228;2023-04-24T13:02:12;10.40;1.00
336;DHT22;156;48.738;9.228;2023-04-24T13:04:43;10.40;1.00
336;DHT22;156;48.738;9.228;2023-04-24T13:07:10;10.30;1.00
336;DHT22;156;48.738;9.228;2023-04-24T13:09:38;10.30;1.00
336;DHT22;156;48.738;9.228;2023-04-24T13:12:06;10.30;1.00
336;DHT22;156;48.738;9.228;2023-04-24T13:14:34;10.20;1.00
336;DHT22;156;48.738;9.228;2023-04-24T13:17:01;10.30;1.00
336;DHT22;156;48.738;9.228;2023-04-24T13:19:28;10.30;1.00
336;DHT22;156;48.738;9.228;2023-04-24T13:21:56;10.20;1.00
336;DHT22;156;48.738;9.228;2023-04-24T13:24:24;9.90;1.00
336;DHT22;156;48.738;9.228;2023-04-24T13:26:51;9.90;1.00
336;DHT22;156;48.738;9.228;2023-04-24T13:29:20;9.70;1.00
336;DHT22;156;48.738;9.228;2023-04-24T13:31:49;10.00;1.00
336;DHT22;156;48.738;9.228;2023-04-24T13:34:16;10.30;1.00
336;DHT22;156;48.738;9.228;2023-04-24T13:36:44;10.60;1.00
336;DHT22;156;48.738;9.228;2023-04-24T13:39:10;10.70;1.00
336;DHT22;156;48.738;9.228;2023-04-24T13:41:38;11.00;1.00
336;DHT22;156;48.738;9.228;2023-04-24T13:44:05;11.00;1.00
336;DHT22;156;48.738;9.228;2023-04-24T13:46:33;11.00;1.00
336;DHT22;156;48.738;9.228;2023-04-24T13:49:02;10.90;1.00
336;DHT22;156;48.738;9.228;2023-04-24T13:51:29;10.80;1.00
336;DHT22;156;48.738;9.228;2023-04-24T13:53:56;10.50;1.00
336;DHT22;156;48.738;9.228;2023-04-24T13:56:23;10.50;1.00
336;DHT22;156;48.738;9.228;2023-04-24T13:58:50;10.40;1.00
336;DHT22;156;48.738;9.228;2023-04-24T14:01:17;9.90;1.00
336;DHT22;156;48.738;9.228;2023-04-24T14:03:45;9.70;1.00
336;DHT22;156;48.738;9.228;2023-04-24T14:06:12;9.20;1.00
336;DHT22;156;48.738;9.228;2023-04-24T14:08:39;8.90;1.00
336;DHT22;156;48.738;9.228;2023-04-24T14:11:06;9.10;1.00
336;DHT22;156;48.738;9.228;2023-04-24T14:13:33;9.70;1.00
336;DHT22;156;48.738;9.228;2023-04-24T14:16:03;10.00;1.00
336;DHT22;156;48.738;9.228;2023-04-24T14:18:30;10.30;1.00
336;DHT22;156;48.738;9.228;2023-04-24T14:20:58;10.40;1.00
336;DHT22;156;48.738;9.228;2023-04-24T14:23:26;10.50;1.00
336;DHT22;156;48.738;9.228;2023-04-24T14:25:53;10.30;1.00
336;DHT22;156;48.738;9.228;2023-04-24T14:28:20;10.20;1.00
336;DHT22;156;48.738;9.228;2023-04-24T14:30:48;10.00;1.00
336;DHT22;156;48.738;9.228;2023-04-24T14:33:15;9.40;1.00
336;DHT22;156;48.738;9.228;2023-04-24T14:35:42;9.40;1.00
336;DHT22;156;48.738;9.228;2023-04-24T14:38:11;8.90;1.00
336;DHT22;156;48.738;9.228;2023-04-24T14:40:38;8.80;1.00
336;DHT22;156;48.738;9.228;2023-04-24T14:43:05;8.90;1.00
336;DHT22;156;48.738;9.228;2023-04-24T14:45:32;9.60;1.00
336;DHT22;156;48.738;9.228;2023-04-24T14:47:59;10.40;1.00
336;DHT22;156;48.738;9.228;2023-04-24T14:50:28;11.00;1.00
336;DHT22;156;48.738;9.228;2023-04-24T14:52:56;11.70;1.00
336;DHT22;156;48.738;9.228;2023-04-24T14:55:25;11.90;1.00
336;DHT22;156;48.738;9.228;2023-04-24T14:57:52;12.10;1.00
336;DHT22;156;48.738;9.228;2023-04-24T15:00:20;12.40;1.00
336;DHT22;156;48.738;9.228;2023-04-24T15:02:48;12.20;1.00
336;DHT22;156;48.738;9.228;2023-04-24T15:05:17;12.10;1.00
336;DHT22;156;48.738;9.228;2023-04-24T15:07:45;11.70;1.00
336;DHT22;156;48.738;9.228;2023-04-24T15:10:12;11.90;1.00
336;DHT22;156;48.738;9.228;2023-04-24T15:12:40;11.90;1.00
336;DHT22;156;48.738;9.228;2023-04-24T15:15:08;11.70;1.00
336;DHT22;156;48.738;9.228;2023-04-24T15:17:35;11.60;1.00
336;DHT22;156;48.738;9.228;2023-04-24T15:20:03;11.50;1.00
336;DHT22;156;48.738;9.228;2023-04-24T15:22:31;11.50;1.00
336;DHT22;156;48.738;9.228;2023-04-24T15:24:58;11.50;1.00
336;DHT22;156;48.738;9.228;2023-04-24T15:27:26;11.30;1.00
336;DHT22;156;48.738;9.228;2023-04-24T15:29:54;11.30;1.00
336;DHT22;156;48.738;9.228;2023-04-24T15:32:23;11.10;1.00
336;DHT22;156;48.738;9.228;2023-04-24T15:34:49;11.10;1.00
336;DHT22;156;48.738;9.228;2023-04-24T15:37:16;10.80;1.00
336;DHT22;156;48.738;9.228;2023-04-24T15:39:45;10.70;1.00
336;DHT22;156;48.738;9.228;2023-04-24T15:42:12;10.70;1.00
336;DHT22;156;48.738;9.228;2023-04-24T15:44:39;10.60;1.00
336;DHT22;156;48.738;9.228;2023-04-24T15:47:10;10.50;1.00
336;DHT22;156;48.738;9.228;2023-04-24T15:49:39;10.50;1.00
336;DHT22;156;48.738;9.228;2023-04-24T15:52:08;10.20;1.00
336;DHT22;156;48.738;9.228;2023-04-24T15:54:36;10.20;1.00
336;DHT22;156;48.738;9.228;2023-04-24T15:57:03;10.20;1.00
336;DHT22;156;48.738;9.228;2023-04-24T15:59:33;10.40;1.00
336;DHT22;156;48.738;9.228;2023-04-24T16:02:00;10.70;1.00
336;DHT22;156;48.738;9.228;2023-04-24T16:04:30;10.50;1.00
336;DHT22;156;48.738;9.228;2023-04-24T16:07:00;10.60;1.00
336;DHT22;156;48.738;9.228;2023-04-24T16:09:28;10.60;1.00
336;DHT22;156;48.738;9.228;2023-04-24T16:11:56;11.10;1.00
336;DHT22;156;48.738;9.228;2023-04-24T16:14:24;12.00;1.00
336;DHT22;156;48.738;9.228;2023-04-24T16:16:51;12.20;1.00
336;DHT22;156;48.738;9.228;2023-04-24T16:19:19;12.60;1.00
336;DHT22;156;48.738;9.228;2023-04-24T16:21:48;12.30;1.00
336;DHT22;156;48.738;9.228;2023-04-24T16:24:16;12.40;1.00
336;DHT22;156;48.738;9.228;2023-04-24T16:26:43;12.60;1.00
336;DHT22;156;48.738;9.228;2023-04-24T16:29:13;12.40;1.00
336;DHT22;156;48.738;9.228;2023-04-24T16:31:40;12.30;1.00
336;DHT22;156;48.738;9.228;2023-04-24T16:34:07;12.00;1.00
336;DHT22;156;48.738;9.228;2023-04-24T16:36:34;12.10;1.00
336;DHT22;156;48.738;9.228;2023-04-24T16:39:03;11.90;1.00
336;DHT22;156;48.738;9.228;2023-04-24T16:41:30;11.80;1.00
336;DHT22;156;48.738;9.228;2023-04-24T16:43:57;11.70;1.00
336;DHT22;156;48.738;9.228;2023-04-24T16:46:24;11.70;1.00
336;DHT22;156;48.738;9.228;2023-04-24T16:48:51;11.70;1.00
336;DHT22;156;48.738;9.228;2023-04-24T16:51:18;11.70;1.00
336;DHT22;156;48.738;9.228;2023-04-24T16:53:45;11.60;1.00
336;DHT22;156;48.738;9.228;2023-04-24T16:56:14;11.50;1.00